Time;durP1;ratioP1;P1;durP2;ratioP2;P2;SDS_P1;SDS_P2;PMS_P1;PMS_P2;Temp;Humidity;BMP_temperature;BMP_pressure;BME280_temperature;BME280_humidity;BME280_pressure;Samples;Min_cycle;Max_cycle;Signal;HPM_P1;HPM_P2
2023/03/09 00:01:24;;;;;;;33.53;18.45;;;3.60;99.90;;;;;;5058457;28;20035;-58
2023/03/09 00:03:50;;;;;;;35.35;18.73;;;3.90;99.90;;;;;;5058427;28;20105;-58
2023/03/09 00:06:16;;;;;;;33.20;18.13;;;3.90;99.90;;;;;;5059143;28;20082;-58
2023/03/09 00:08:43;;;;;;;34.80;18.15;;;3.80;99.90;;;;;;5041865;28;20041;-59
2023/03/09 00:11:09;;;;;;;31.10;17.88;;;3.80;99.90;;;;;;5058356;28;20401;-58
2023/03/09 00:13:35;;;;;;;39.22;21.17;;;3.70;99.90;;;;;;5058979;28;20033;-58
2023/03/09 00:16:13;;;;;;;38.00;21.25;;;3.80;99.90;;;;;;5058239;28;20055;-60
2023/03/09 00:18:40;;;;;;;38.60;21.52;;;3.90;99.90;;;;;;5058892;28;20029;-58
2023/03/09 00:21:06;;;;;;;38.42;21.42;;;4.00;99.90;;;;;;5058918;28;20347;-58
2023/03/09 00:23:32;;;;;;;41.70;23.05;;;4.00;99.90;;;;;;5058821;28;20297;-58
2023/03/09 00:26:05;;;;;;;38.97;21.35;;;4.00;99.90;;;;;;5058821;28;20292;-58
2023/03/09 00:28:31;;;;;;;40.08;21.23;;;4.00;99.90;;;;;;5058993;28;20047;-58
2023/03/09 00:31:05;;;;;;;41.28;21.58;;;3.90;99.90;;;;;;5058686;28;20075;-59
2023/03/09 00:33:35;;;;;;;33.50;19.23;;;3.80;99.90;;;;;;5058650;28;20044;-59
2023/03/09 00:36:00;;;;;;;39.35;22.35;;;3.90;99.90;;;;;;5058657;28;20278;-59
2023/03/09 00:38:28;;;;;;;39.00;22.98;;;4.00;99.90;;;;;;5057727;28;20052;-59
2023/03/09 00:40:56;;;;;;;38.33;21.27;;;3.90;99.90;;;;;;5058571;28;20420;-58
2023/03/09 00:43:22;;;;;;;38.42;21.73;;;3.90;99.90;;;;;;5058485;28;20029;-59
2023/03/09 00:45:48;;;;;;;40.35;21.58;;;4.00;99.90;;;;;;5057579;28;20037;-59
2023/03/09 00:48:14;;;;;;;42.38;23.35;;;4.00;99.90;;;;;;5057635;28;20531;-59
2023/03/09 00:50:40;;;;;;;39.42;22.88;;;4.00;99.90;;;;;;5057514;28;20286;-59
2023/03/09 00:53:06;;;;;;;36.45;21.20;;;4.00;99.90;;;;;;5041120;28;20112;-59
2023/03/09 00:55:32;;;;;;;38.97;22.55;;;4.10;99.90;;;;;;5058094;28;20059;-59
2023/03/09 00:57:59;;;;;;;39.03;22.75;;;4.00;99.90;;;;;;5058069;28;20076;-58
2023/03/09 01:00:26;;;;;;;35.38;21.38;;;3.90;99.90;;;;;;5057258;28;20026;-58
2023/03/09 01:02:52;;;;;;;36.35;21.35;;;4.00;99.90;;;;;;5058025;28;20029;-58
2023/03/09 01:05:18;;;;;;;38.30;21.08;;;4.00;99.90;;;;;;5057161;28;20404;-58
2023/03/09 01:07:44;;;;;;;36.70;21.52;;;3.90;99.90;;;;;;5057186;28;20036;-58
2023/03/09 01:10:11;;;;;;;37.58;21.60;;;4.00;99.90;;;;;;5057162;28;20029;-58
2023/03/09 01:12:37;;;;;;;35.08;20.80;;;3.90;99.90;;;;;;5057115;28;20048;-60
2023/03/09 01:15:04;;;;;;;33.53;20.20;;;4.00;99.90;;;;;;5057189;28;20090;-58
2023/03/09 01:17:30;;;;;;;37.63;21.33;;;3.90;99.90;;;;;;5057784;28;20033;-58
2023/03/09 01:19:56;;;;;;;36.20;20.63;;;3.80;99.90;;;;;;5057315;28;20039;-58
2023/03/09 01:22:21;;;;;;;37.83;21.88;;;3.90;99.90;;;;;;5058083;28;20345;-58
2023/03/09 01:24:47;;;;;;;31.42;19.65;;;4.00;99.90;;;;;;5040404;28;20080;-58
2023/03/09 01:27:14;;;;;;;36.42;21.27;;;4.00;99.90;;;;;;5057643;28;20287;-58
2023/03/09 01:29:40;;;;;;;38.53;22.20;;;4.00;99.90;;;;;;5056783;28;20036;-59
2023/03/09 01:32:06;;;;;;;36.53;21.30;;;4.00;99.90;;;;;;5056792;28;20029;-59
2023/03/09 01:34:32;;;;;;;33.10;20.83;;;4.00;99.90;;;;;;5057429;28;20396;-59
2023/03/09 01:36:57;;;;;;;34.03;20.05;;;4.10;99.90;;;;;;5056698;28;20063;-58
2023/03/09 01:39:23;;;;;;;33.45;20.38;;;4.00;99.90;;;;;;5057435;28;20300;-59
2023/03/09 01:41:49;;;;;;;35.05;20.15;;;4.00;99.90;;;;;;5057382;28;20112;-59
2023/03/09 01:44:15;;;;;;;33.53;20.35;;;4.00;99.90;;;;;;5056612;28;20041;-58
2023/03/09 01:46:43;;;;;;;32.78;20.25;;;4.00;99.90;;;;;;5056528;28;20464;-58
2023/03/09 01:49:30;;;;;;;34.47;20.35;;;4.00;99.90;;;;;;5057026;28;20036;-59
2023/03/09 01:52:19;;;;;;;34.88;20.60;;;4.00;99.90;;;;;;5055616;28;20312;-58
2023/03/09 01:55:03;;;;;;;33.40;20.15;;;4.10;99.90;;;;;;5057077;28;20041;-58
2023/03/09 01:57:46;;;;;;;31.35;19.17;;;4.10;99.90;;;;;;5056317;28;20029;-58
2023/03/09 02:00:14;;;;;;;;;;;4.00;99.90;;;;;;5057581;28;20443;-59
2023/03/09 02:03:08;;;;;;;34.85;19.10;;;3.80;99.90;;;;;;5056296;28;19909;-59
2023/03/09 02:05:48;;;;;;;33.35;19.25;;;3.70;99.90;;;;;;5039741;28;20021;-59
2023/03/09 02:08:17;;;;;;;37.53;20.35;;;3.70;99.90;;;;;;5056455;28;20427;-59
2023/03/09 02:11:07;;;;;;;35.30;20.40;;;3.70;99.90;;;;;;5056112;28;20036;-59
2023/03/09 02:13:41;;;;;;;35.33;19.50;;;3.80;99.90;;;;;;5039925;28;20036;-59
2023/03/09 02:16:07;;;;;;;39.10;20.67;;;3.80;99.90;;;;;;5056863;28;20102;-59
2023/03/09 02:18:33;;;;;;;34.88;19.95;;;3.90;99.90;;;;;;5056755;28;20116;-59
2023/03/09 02:21:05;;;;;;;35.63;19.75;;;3.80;99.90;;;;;;5056000;28;20076;-60
2023/03/09 02:23:53;;;;;;;36.47;20.10;;;3.70;99.90;;;;;;5056014;28;20277;-59
2023/03/09 02:26:42;;;;;;;38.00;20.08;;;3.60;99.90;;;;;;5056692;28;20428;-57
2023/03/09 02:29:10;;;;;;;38.03;20.55;;;3.60;99.90;;;;;;5055940;28;20281;-58
2023/03/09 02:31:36;;;;;;;41.72;21.88;;;3.80;99.90;;;;;;5056678;28;20037;-58
2023/03/09 02:34:02;;;;;;;36.63;20.58;;;3.90;99.90;;;;;;5039363;28;20090;-58
2023/03/09 02:36:28;;;;;;;38.88;21.65;;;3.60;99.90;;;;;;5039326;28;20037;-60
2023/03/09 02:39:04;;;;;;;39.53;20.55;;;3.50;99.90;;;;;;5039737;28;20085;-59
2023/03/09 02:41:31;;;;;;;37.08;20.27;;;3.60;99.90;;;;;;5039428;28;20032;-59
2023/03/09 02:43:58;;;;;;;40.22;21.55;;;3.50;99.90;;;;;;5055816;28;20435;-58
2023/03/09 02:46:28;;;;;;;40.28;20.90;;;3.30;99.90;;;;;;5056133;28;20029;-59
2023/03/09 02:48:54;;;;;;;38.88;21.05;;;3.40;99.90;;;;;;5056783;28;20415;-58
2023/03/09 02:51:20;;;;;;;42.15;22.10;;;3.40;99.90;;;;;;5056787;28;20320;-59
2023/03/09 02:53:46;;;;;;;47.50;23.50;;;3.40;99.90;;;;;;5056787;28;20059;-59
2023/03/09 02:56:13;;;;;;;42.28;22.42;;;3.40;99.90;;;;;;5055519;28;20354;-58
2023/03/09 02:58:39;;;;;;;43.35;22.00;;;3.30;99.90;;;;;;5055592;28;20126;-59
2023/03/09 03:01:05;;;;;;;41.67;21.58;;;3.20;99.90;;;;;;5055828;28;20067;-59
2023/03/09 03:03:31;;;;;;;47.13;22.98;;;3.30;99.90;;;;;;5060099;28;20048;-59
2023/03/09 03:05:57;;;;;;;41.13;21.63;;;3.40;99.90;;;;;;5043009;28;20130;-59
2023/03/09 03:08:23;;;;;;;40.92;22.15;;;3.50;99.90;;;;;;5059740;28;20032;-59
2023/03/09 03:10:49;;;;;;;42.10;21.67;;;3.60;99.90;;;;;;5060220;28;20041;-58
2023/03/09 03:13:15;;;;;;;41.85;21.30;;;3.60;99.90;;;;;;5026710;28;20308;-58
2023/03/09 03:15:41;;;;;;;42.35;21.33;;;3.50;99.90;;;;;;5059343;28;20067;-59
2023/03/09 03:18:07;;;;;;;45.80;22.02;;;3.50;99.90;;;;;;5059147;28;20036;-59
2023/03/09 03:20:33;;;;;;;41.33;22.58;;;3.50;99.90;;;;;;5042934;28;20416;-61
2023/03/09 03:23:00;;;;;;;44.85;23.88;;;3.50;99.90;;;;;;5042793;28;20025;-59
2023/03/09 03:25:36;;;;;;;43.47;21.73;;;3.60;99.90;;;;;;5043844;28;20033;-60
2023/03/09 03:28:02;;;;;;;41.17;21.23;;;3.60;99.90;;;;;;5059164;28;20041;-59
2023/03/09 03:30:29;;;;;;;40.90;21.38;;;3.70;99.90;;;;;;5026327;28;20040;-59
2023/03/09 03:32:56;;;;;;;44.22;21.60;;;3.80;99.90;;;;;;5042577;28;20025;-59
2023/03/09 03:35:27;;;;;;;39.53;21.25;;;3.80;99.90;;;;;;5043213;28;20343;-59
2023/03/09 03:37:54;;;;;;;38.60;19.73;;;3.80;99.90;;;;;;5042370;28;20082;-59
2023/03/09 03:40:22;;;;;;;40.28;20.25;;;3.80;99.90;;;;;;5058891;28;20058;-59
2023/03/09 03:42:51;;;;;;;42.55;20.77;;;3.80;99.90;;;;;;5059013;28;20060;-60
2023/03/09 03:45:18;;;;;;;37.53;20.38;;;3.80;99.90;;;;;;5059787;28;20064;-58
2023/03/09 03:47:44;;;;;;;40.30;19.88;;;3.80;99.90;;;;;;5058680;28;20123;-58
2023/03/09 03:50:10;;;;;;;36.65;19.40;;;3.80;99.90;;;;;;5058685;28;20045;-58
2023/03/09 03:52:45;;;;;;;38.20;20.00;;;3.80;99.90;;;;;;5043252;28;20040;-58
2023/03/09 03:55:11;;;;;;;38.55;18.85;;;3.80;99.90;;;;;;5041857;28;20090;-58
2023/03/09 03:57:37;;;;;;;36.00;19.25;;;3.80;99.90;;;;;;5041955;28;20041;-58
2023/03/09 04:00:13;;;;;;;36.80;18.98;;;3.80;99.90;;;;;;5058521;28;20040;-59
2023/03/09 04:02:41;;;;;;;39.50;20.10;;;3.80;99.90;;;;;;5044309;28;20033;-58
2023/03/09 04:05:16;;;;;;;39.10;19.70;;;3.80;99.90;;;;;;5027991;28;20048;-59
2023/03/09 04:07:44;;;;;;;35.88;19.17;;;3.70;99.90;;;;;;5058343;28;20029;-60
2023/03/09 04:10:10;;;;;;;36.75;19.45;;;3.70;99.90;;;;;;5041740;28;20043;-58
2023/03/09 04:12:40;;;;;;;35.58;18.65;;;3.90;99.90;;;;;;5058362;28;20106;-58
2023/03/09 04:15:07;;;;;;;38.67;19.10;;;4.00;99.90;;;;;;5057379;28;20037;-58
2023/03/09 04:17:34;;;;;;;41.33;19.60;;;4.20;99.90;;;;;;5058014;28;20029;-58
2023/03/09 04:20:00;;;;;;;37.35;18.83;;;4.10;99.90;;;;;;5041585;28;20364;-58
2023/03/09 04:22:26;;;;;;;37.75;18.80;;;4.00;99.90;;;;;;5058054;28;20313;-58
2023/03/09 04:24:52;;;;;;;38.55;19.88;;;4.10;99.90;;;;;;5058830;28;20108;-58
2023/03/09 04:27:18;;;;;;;37.30;19.30;;;4.20;99.90;;;;;;5058728;28;20043;-58
2023/03/09 04:29:55;;;;;;;37.38;20.08;;;4.30;99.90;;;;;;5057930;28;20040;-58
2023/03/09 04:32:24;;;;;;;40.08;19.52;;;4.30;99.90;;;;;;5057870;28;20055;-58
2023/03/09 04:34:56;;;;;;;36.72;18.77;;;4.20;99.90;;;;;;5057871;28;20311;-58
2023/03/09 04:37:24;;;;;;;36.03;18.60;;;4.20;99.90;;;;;;5041608;28;20029;-58
2023/03/09 04:39:53;;;;;;;33.15;18.55;;;4.20;99.90;;;;;;5057657;28;20261;-58
2023/03/09 04:42:19;;;;;;;33.30;18.58;;;4.10;99.90;;;;;;5041112;28;20110;-58
2023/03/09 04:44:46;;;;;;;34.47;18.20;;;4.10;99.90;;;;;;5057640;28;20027;-58
2023/03/09 04:47:13;;;;;;;30.92;17.83;;;4.10;99.90;;;;;;5041414;28;20033;-58
2023/03/09 04:49:40;;;;;;;35.83;18.70;;;4.10;99.90;;;;;;5058340;28;20393;-58
2023/03/09 04:52:07;;;;;;;34.90;18.73;;;4.10;99.90;;;;;;5057468;28;20404;-59
2023/03/09 04:54:33;;;;;;;34.83;18.15;;;4.10;99.90;;;;;;5057859;28;20041;-58
2023/03/09 04:56:59;;;;;;;35.83;18.88;;;4.00;99.90;;;;;;5057656;28;20087;-58
2023/03/09 04:59:26;;;;;;;35.28;19.05;;;3.90;99.90;;;;;;5058138;28;20108;-58
2023/03/09 05:01:52;;;;;;;35.90;18.73;;;3.90;99.90;;;;;;5024499;28;20032;-63
2023/03/09 05:04:22;;;;;;;35.60;18.80;;;4.10;99.90;;;;;;5025526;28;20029;-59
2023/03/09 05:06:54;;;;;;;37.47;19.42;;;4.10;99.90;;;;;;5057237;28;20079;-58
2023/03/09 05:09:21;;;;;;;37.20;19.63;;;4.00;99.90;;;;;;5057929;28;20090;-59
2023/03/09 05:11:51;;;;;;;39.38;20.15;;;3.90;99.90;;;;;;5057082;28;20088;-58
2023/03/09 05:14:19;;;;;;;39.28;19.75;;;4.00;99.90;;;;;;5057184;28;20343;-59
2023/03/09 05:16:50;;;;;;;39.08;19.70;;;4.00;99.90;;;;;;5024098;28;20269;-58
2023/03/09 05:19:18;;;;;;;39.08;20.92;;;4.00;99.90;;;;;;5057178;28;20316;-58
2023/03/09 05:21:44;;;;;;;36.83;19.45;;;4.10;99.90;;;;;;5040411;28;20033;-58
2023/03/09 05:24:13;;;;;;;35.75;19.13;;;4.00;99.90;;;;;;5040721;28;20040;-58
2023/03/09 05:26:40;;;;;;;39.35;20.10;;;4.00;99.90;;;;;;5056756;28;20043;-58
2023/03/09 05:29:07;;;;;;;39.53;20.75;;;4.10;99.90;;;;;;5057673;28;20126;-58
2023/03/09 05:31:35;;;;;;;40.28;20.27;;;4.00;99.90;;;;;;5056867;28;20033;-59
2023/03/09 05:34:01;;;;;;;39.72;20.90;;;4.00;99.90;;;;;;5056710;28;20332;-58
2023/03/09 05:36:27;;;;;;;39.40;20.85;;;4.00;99.90;;;;;;5040302;28;20025;-58
2023/03/09 05:38:56;;;;;;;39.20;21.00;;;4.00;99.90;;;;;;5057331;28;20071;-59
2023/03/09 05:41:22;;;;;;;40.53;21.38;;;4.10;99.90;;;;;;5056658;28;20413;-58
2023/03/09 05:43:54;;;;;;;47.22;22.10;;;4.10;99.90;;;;;;5056597;28;20037;-58
2023/03/09 05:46:23;;;;;;;42.63;21.73;;;4.10;99.90;;;;;;5040080;28;20057;-59
2023/03/09 05:48:49;;;;;;;44.40;22.13;;;4.20;99.90;;;;;;5056732;28;20355;-58
2023/03/09 05:51:15;;;;;;;45.33;22.75;;;4.30;99.90;;;;;;5056487;28;20035;-58
2023/03/09 05:53:42;;;;;;;43.53;21.77;;;4.20;99.90;;;;;;5056420;28;20037;-58
2023/03/09 05:56:08;;;;;;;44.72;22.33;;;4.30;99.90;;;;;;5056981;28;20309;-58
2023/03/09 05:58:34;;;;;;;48.28;22.90;;;4.30;99.90;;;;;;5056267;28;20071;-58
2023/03/09 06:01:01;;;;;;;44.42;22.67;;;4.20;99.90;;;;;;5056348;28;20116;-58
2023/03/09 06:03:29;;;;;;;47.30;21.95;;;4.10;99.90;;;;;;5056713;28;20282;-58
2023/03/09 06:06:04;;;;;;;43.63;22.02;;;4.10;99.90;;;;;;5056228;28;20043;-58
2023/03/09 06:08:33;;;;;;;46.80;22.63;;;4.10;99.90;;;;;;5056303;28;20120;-58
2023/03/09 06:11:02;;;;;;;49.33;22.75;;;4.00;99.90;;;;;;5056757;28;20116;-58
2023/03/09 06:13:30;;;;;;;44.67;23.08;;;4.10;99.90;;;;;;5056018;28;20029;-58
2023/03/09 06:15:58;;;;;;;42.78;22.52;;;4.10;99.90;;;;;;5055917;28;20113;-57
2023/03/09 06:18:25;;;;;;;42.92;22.75;;;4.20;99.90;;;;;;5055868;28;20036;-60
2023/03/09 06:20:52;;;;;;;48.55;22.67;;;4.30;99.90;;;;;;5039722;28;20422;-59
2023/03/09 06:23:17;;;;;;;47.90;22.75;;;4.30;99.90;;;;;;5056870;28;20053;-59
2023/03/09 06:25:43;;;;;;;44.70;22.13;;;4.30;99.90;;;;;;5056098;28;20270;-60
2023/03/09 06:28:10;;;;;;;47.00;23.30;;;4.30;99.90;;;;;;5039590;28;20037;-57
2023/03/09 06:30:40;;;;;;;42.50;22.42;;;4.20;99.90;;;;;;5039704;28;20312;-59
2023/03/09 06:33:06;;;;;;;42.50;22.98;;;4.20;99.90;;;;;;5055829;28;20052;-59
2023/03/09 06:35:35;;;;;;;43.60;22.52;;;4.30;99.90;;;;;;5056980;28;20282;-59
2023/03/09 06:38:03;;;;;;;41.08;21.85;;;4.30;99.90;;;;;;5058846;28;20120;-59
2023/03/09 06:40:29;;;;;;;42.78;21.90;;;4.30;99.90;;;;;;5043280;28;20112;-59
2023/03/09 06:42:55;;;;;;;40.88;21.83;;;4.40;99.90;;;;;;5043205;28;20396;-58
2023/03/09 06:45:21;;;;;;;44.97;22.77;;;4.40;99.90;;;;;;5059862;28;20365;-59
2023/03/09 06:47:47;;;;;;;42.88;20.92;;;4.50;99.90;;;;;;5059914;28;20037;-59
2023/03/09 06:50:13;;;;;;;41.40;21.65;;;4.40;99.90;;;;;;5060858;28;20039;-60
2023/03/09 06:52:43;;;;;;;43.05;22.20;;;4.40;99.90;;;;;;5059757;28;20025;-58
2023/03/09 06:55:10;;;;;;;39.50;20.95;;;4.40;99.90;;;;;;5060677;28;20056;-59
2023/03/09 06:57:38;;;;;;;42.85;21.70;;;4.50;99.90;;;;;;5043481;28;20120;-59
2023/03/09 07:00:04;;;;;;;43.10;21.85;;;4.50;99.90;;;;;;5060475;28;20340;-59
2023/03/09 07:02:31;;;;;;;46.67;23.52;;;4.30;99.90;;;;;;5060015;28;20087;-59
2023/03/09 07:04:57;;;;;;;44.67;23.13;;;4.40;99.90;;;;;;5059606;28;20040;-59
2023/03/09 07:07:24;;;;;;;44.72;22.55;;;4.40;99.90;;;;;;5043468;28;20029;-59
2023/03/09 07:09:50;;;;;;;42.45;21.90;;;4.50;99.90;;;;;;5060559;28;20033;-59
2023/03/09 07:12:15;;;;;;;44.33;22.02;;;4.50;99.90;;;;;;5059446;28;20102;-59
2023/03/09 07:14:41;;;;;;;46.58;22.55;;;4.60;99.90;;;;;;5060169;28;20029;-59
2023/03/09 07:17:12;;;;;;;42.15;21.50;;;4.60;99.90;;;;;;5060631;28;20029;-58
2023/03/09 07:19:37;;;;;;;45.78;21.42;;;4.60;99.90;;;;;;5060142;28;20033;-58
2023/03/09 07:22:03;;;;;;;43.78;22.00;;;4.70;99.90;;;;;;5060081;28;20029;-59
2023/03/09 07:24:29;;;;;;;41.05;21.75;;;4.70;99.90;;;;;;5060407;28;20097;-58
2023/03/09 07:26:55;;;;;;;29.25;15.90;;;4.80;99.90;;;;;;5060011;28;20032;-57
2023/03/09 07:29:21;;;;;;;41.13;22.00;;;5.70;99.90;;;;;;5060307;28;20033;-58
2023/03/09 07:31:47;;;;;;;45.17;21.73;;;5.60;99.90;;;;;;5060408;28;20033;-58
2023/03/09 07:34:12;;;;;;;39.03;21.33;;;5.50;99.90;;;;;;5059051;28;20063;-58
2023/03/09 07:36:38;;;;;;;37.28;20.38;;;5.50;99.90;;;;;;5059779;28;20040;-58
2023/03/09 07:39:04;;;;;;;38.78;21.10;;;6.10;99.90;;;;;;5058994;28;20481;-58
2023/03/09 07:41:30;;;;;;;38.22;20.58;;;5.70;99.90;;;;;;5058894;28;20041;-59
2023/03/09 07:43:58;;;;;;;38.58;20.92;;;5.60;99.90;;;;;;5059696;28;20090;-59
2023/03/09 07:46:25;;;;;;;38.33;19.83;;;5.50;99.90;;;;;;5058765;28;20021;-58
2023/03/09 07:48:51;;;;;;;38.75;20.80;;;5.50;99.90;;;;;;5058793;28;20410;-59
2023/03/09 07:51:18;;;;;;;40.13;21.08;;;5.60;99.90;;;;;;5059494;28;20037;-59
2023/03/09 07:53:43;;;;;;;42.45;21.48;;;5.80;99.90;;;;;;5058844;28;20072;-59
2023/03/09 07:56:09;;;;;;;39.25;21.25;;;5.70;99.90;;;;;;5059256;28;20130;-58
2023/03/09 07:58:38;;;;;;;39.25;20.77;;;5.80;99.90;;;;;;5059348;28;20033;-58
2023/03/09 08:01:06;;;;;;;40.28;22.75;;;5.80;99.90;;;;;;5058635;28;20048;-58
2023/03/09 08:03:32;;;;;;;40.78;22.23;;;5.80;99.90;;;;;;5059922;28;20066;-59
2023/03/09 08:06:01;;;;;;;42.50;21.83;;;5.70;99.90;;;;;;5058459;28;20365;-58
2023/03/09 08:08:27;;;;;;;37.78;21.13;;;5.60;99.90;;;;;;5059266;28;20068;-58
2023/03/09 08:10:54;;;;;;;39.45;22.48;;;5.60;99.90;;;;;;5059164;28;20060;-58
2023/03/09 08:13:21;;;;;;;38.83;21.55;;;5.20;99.90;;;;;;5059218;28;20393;-58
2023/03/09 08:15:51;;;;;;;42.63;23.23;;;5.10;99.90;;;;;;5059097;28;20037;-59
2023/03/09 08:18:18;;;;;;;38.25;21.58;;;5.40;99.90;;;;;;5059072;28;20044;-58
2023/03/09 08:20:44;;;;;;;40.35;21.88;;;5.50;99.90;;;;;;5058950;28;20046;-58
2023/03/09 08:23:11;;;;;;;42.50;21.88;;;5.70;99.90;;;;;;5058980;28;20298;-58
2023/03/09 08:25:37;;;;;;;41.45;22.88;;;5.90;99.90;;;;;;5058908;28;20040;-58
2023/03/09 08:28:04;;;;;;;41.38;23.13;;;6.10;99.90;;;;;;5059160;28;20466;-58
2023/03/09 08:30:30;;;;;;;40.22;21.98;;;6.30;99.90;;;;;;5058802;28;20064;-58
2023/03/09 08:32:57;;;;;;;40.53;21.65;;;6.30;99.90;;;;;;5058209;28;20036;-58
2023/03/09 08:35:27;;;;;;;38.25;21.92;;;6.20;99.90;;;;;;5058698;28;20056;-59
2023/03/09 08:37:53;;;;;;;36.55;20.20;;;6.20;99.90;;;;;;5058976;28;20270;-58
2023/03/09 08:40:19;;;;;;;37.58;21.10;;;6.00;99.90;;;;;;5057809;28;20044;-58
2023/03/09 08:42:45;;;;;;;32.33;19.42;;;6.40;99.90;;;;;;5057809;28;20021;-58
2023/03/09 08:45:12;;;;;;;37.47;20.70;;;6.60;99.90;;;;;;5058596;28;20025;-58
2023/03/09 08:47:38;;;;;;;35.40;20.52;;;6.80;99.90;;;;;;5057854;28;20099;-58
2023/03/09 08:50:06;;;;;;;35.13;19.77;;;7.00;99.90;;;;;;5058417;28;20404;-59
2023/03/09 08:52:37;;;;;;;33.25;19.75;;;7.00;99.90;;;;;;5058450;28;20029;-58
2023/03/09 08:55:05;;;;;;;33.83;19.53;;;7.00;99.90;;;;;;5058544;28;20060;-58
2023/03/09 08:57:31;;;;;;;38.15;21.27;;;6.60;99.90;;;;;;5058837;28;20314;-58
2023/03/09 08:59:57;;;;;;;36.92;20.13;;;6.60;99.90;;;;;;5057108;28;20021;-58
2023/03/09 09:02:23;;;;;;;37.30;20.27;;;6.50;99.90;;;;;;5057529;28;20029;-58
2023/03/09 09:04:50;;;;;;;37.75;21.65;;;6.50;99.90;;;;;;5058181;28;20470;-58
2023/03/09 09:07:16;;;;;;;40.22;22.98;;;6.70;99.90;;;;;;5058049;28;20094;-58
2023/03/09 09:09:42;;;;;;;34.83;20.10;;;6.80;99.90;;;;;;5057371;28;20020;-58
2023/03/09 09:12:09;;;;;;;37.58;21.65;;;6.80;99.90;;;;;;5057400;28;20186;-57
2023/03/09 09:14:39;;;;;;;34.72;20.17;;;6.80;99.90;;;;;;5057314;28;20040;-57
2023/03/09 09:17:08;;;;;;;36.42;20.70;;;6.90;99.90;;;;;;5057166;28;20044;-57
2023/03/09 09:19:35;;;;;;;35.47;20.27;;;7.00;99.90;;;;;;5057766;28;20108;-58
2023/03/09 09:22:03;;;;;;;36.53;21.08;;;6.90;99.90;;;;;;5040570;28;20076;-58
2023/03/09 09:24:32;;;;;;;32.88;20.45;;;7.00;99.90;;;;;;5057760;28;20510;-58
2023/03/09 09:26:59;;;;;;;33.03;20.27;;;7.00;99.90;;;;;;5057097;28;20033;-58
2023/03/09 09:29:26;;;;;;;35.45;21.00;;;7.00;99.90;;;;;;5057557;28;20326;-58
2023/03/09 09:31:52;;;;;;;33.35;20.10;;;7.20;99.90;;;;;;5057664;28;20029;-58
2023/03/09 09:34:21;;;;;;;34.67;21.30;;;7.10;99.90;;;;;;5057595;28;20025;-58
2023/03/09 09:36:47;;;;;;;35.25;20.45;;;7.10;99.90;;;;;;5057646;28;20029;-58
2023/03/09 09:39:13;;;;;;;33.55;20.02;;;7.00;99.90;;;;;;5056874;28;20033;-58
2023/03/09 09:41:52;;;;;;;36.97;20.73;;;6.90;99.90;;;;;;5057560;28;20039;-58
2023/03/09 09:44:42;;;;;;;35.80;21.02;;;6.80;99.90;;;;;;5040513;28;20090;-58
2023/03/09 09:47:24;;;;;;;33.92;20.52;;;6.70;99.90;;;;;;5057506;28;20095;-59
2023/03/09 09:49:53;;;;;;;34.33;20.42;;;6.50;99.90;;;;;;5057332;28;20047;-58
2023/03/09 09:52:37;;;;;;;33.13;21.08;;;6.60;99.90;;;;;;5056481;28;20397;-59
2023/03/09 09:55:16;;;;;;;35.92;21.20;;;6.80;99.90;;;;;;5056518;28;20049;-58
2023/03/09 09:57:56;;;;;;;37.38;20.13;;;6.80;99.90;;;;;;5057223;28;20120;-58
2023/03/09 10:00:34;;;;;;;38.15;21.42;;;7.00;99.90;;;;;;5057216;28;20036;-58
2023/03/09 10:03:28;;;;;;;35.70;21.42;;;7.00;99.90;;;;;;5057796;28;20039;-58
2023/03/09 10:06:16;;;;;;;36.83;21.60;;;7.10;99.90;;;;;;5042863;28;20039;-58
2023/03/09 10:08:56;;;;;;;34.42;20.73;;;7.20;99.90;;;;;;5057094;28;20035;-59
2023/03/09 10:11:25;;;;;;;37.25;20.98;;;7.20;99.90;;;;;;5056252;28;20116;-58
2023/03/09 10:13:56;;;;;;;36.63;21.63;;;7.30;99.90;;;;;;5056649;28;20427;-59
2023/03/09 10:16:27;;;;;;;35.35;21.40;;;7.00;99.90;;;;;;5039622;28;20024;-59
2023/03/09 10:18:58;;;;;;;33.72;19.10;;;6.90;99.90;;;;;;5056898;28;20035;-59
2023/03/09 10:21:36;;;;;;;37.67;23.30;;;7.10;99.90;;;;;;5056834;28;20037;-59
2023/03/09 10:24:21;;;;;;;38.20;22.38;;;7.30;99.90;;;;;;5056989;28;20029;-59
2023/03/09 10:27:00;;;;;;;31.58;20.77;;;7.40;99.90;;;;;;5056243;28;20041;-59
2023/03/09 10:29:46;;;;;;;36.47;20.35;;;7.20;99.90;;;;;;5056828;28;20025;-59
2023/03/09 10:32:45;;;;;;;37.45;20.83;;;7.30;99.90;;;;;;5056211;28;20033;-59
2023/03/09 10:35:21;;;;;;;36.25;20.45;;;7.30;99.90;;;;;;5056343;28;20041;-59
2023/03/09 10:37:50;;;;;;;35.45;19.63;;;7.30;99.90;;;;;;5057317;28;20281;-59
2023/03/09 10:40:22;;;;;;;39.78;21.30;;;7.40;99.90;;;;;;5055982;28;20119;-59
2023/03/09 10:42:48;;;;;;;37.88;20.65;;;7.70;99.90;;;;;;5057012;28;20339;-59
2023/03/09 10:45:27;;;;;;;37.42;20.45;;;7.50;99.90;;;;;;5056673;28;20055;-59
2023/03/09 10:48:07;;;;;;;39.47;20.75;;;7.40;99.90;;;;;;5056698;28;20068;-59
2023/03/09 10:50:40;;;;;;;37.88;19.92;;;7.50;99.90;;;;;;5056772;28;20036;-59
2023/03/09 10:53:26;;;;;;;36.50;20.10;;;7.60;99.90;;;;;;5057345;28;20288;-59
2023/03/09 10:55:56;;;;;;;33.97;18.63;;;7.40;99.90;;;;;;5056443;28;20060;-59
2023/03/09 10:58:22;;;;;;;36.85;19.00;;;7.50;99.90;;;;;;5055924;28;20106;-60
2023/03/09 11:01:18;;;;;;;38.47;20.08;;;7.70;99.90;;;;;;5039414;28;20040;-59
2023/03/09 11:03:44;;;;;;;36.65;19.20;;;8.00;99.90;;;;;;5057165;28;20033;-58
2023/03/09 11:06:12;;;;;;;32.42;18.38;;;8.00;99.90;;;;;;5056486;28;20452;-59
2023/03/09 11:08:41;;;;;;;32.92;18.50;;;8.10;99.90;;;;;;5056518;28;20033;-59
2023/03/09 11:11:16;;;;;;;29.83;17.80;;;8.10;99.90;;;;;;5055729;28;20063;-59
2023/03/09 11:13:46;;;;;;;29.70;17.02;;;7.90;99.90;;;;;;5056557;28;20312;-59
2023/03/09 11:16:17;;;;;;;34.65;18.35;;;7.90;99.90;;;;;;5055614;28;20370;-59
2023/03/09 11:18:43;;;;;;;35.22;18.85;;;8.00;99.90;;;;;;5056313;28;20128;-59
2023/03/09 11:21:17;;;;;;;32.90;18.13;;;8.00;99.90;;;;;;5039032;28;20456;-59
2023/03/09 11:23:47;;;;;;;32.97;18.58;;;8.10;99.90;;;;;;5058450;28;20081;-59
2023/03/09 11:26:44;;;;;;;31.15;18.23;;;7.90;99.90;;;;;;5060110;28;20108;-59
2023/03/09 11:29:36;;;;;;;31.45;17.08;;;7.90;99.90;;;;;;5059830;28;20032;-58
2023/03/09 11:32:03;;;;;;;29.90;17.35;;;8.00;99.90;;;;;;5059955;28;20036;-58
2023/03/09 11:34:34;;;;;;;28.17;16.38;;;8.10;99.90;;;;;;5059869;28;20091;-58
2023/03/09 11:37:35;;;;;;;24.10;13.17;;;8.30;99.90;;;;;;5059671;28;20029;-57
2023/03/09 11:40:23;;;;;;;31.60;17.70;;;8.20;99.90;;;;;;5059452;28;20033;-58
2023/03/09 11:43:00;;;;;;;34.60;18.67;;;8.10;99.90;;;;;;5059647;28;20392;-57
2023/03/09 11:45:29;;;;;;;36.08;19.02;;;7.80;99.90;;;;;;5059857;28;20396;-57
2023/03/09 11:48:19;;;;;;;36.40;19.38;;;7.70;99.90;;;;;;5059676;28;20031;-58
2023/03/09 11:50:55;;;;;;;34.63;19.05;;;7.50;99.90;;;;;;5058794;28;20041;-57
2023/03/09 11:53:29;;;;;;;35.45;18.92;;;7.50;99.90;;;;;;5059513;28;20040;-58
2023/03/09 11:56:21;;;;;;;35.50;18.90;;;7.50;99.90;;;;;;5059285;28;20059;-58
2023/03/09 11:59:00;;;;;;;30.77;18.02;;;7.50;99.90;;;;;;5058986;28;20109;-57
2023/03/09 12:01:43;;;;;;;30.98;18.00;;;7.60;99.90;;;;;;5059722;28;20098;-58
2023/03/09 12:04:11;;;;;;;31.98;17.67;;;7.50;99.90;;;;;;5059341;28;20067;-57
2023/03/09 12:06:40;;;;;;;29.38;16.88;;;7.30;99.90;;;;;;5059290;28;20344;-57
2023/03/09 12:09:19;;;;;;;31.33;17.63;;;7.30;99.90;;;;;;5059195;28;20041;-57
2023/03/09 12:11:53;;;;;;;31.73;16.73;;;7.30;99.90;;;;;;5059562;28;20393;-59
2023/03/09 12:14:38;;;;;;;29.80;16.38;;;7.20;99.90;;;;;;5058393;28;20119;-57
2023/03/09 12:17:15;;;;;;;28.75;16.63;;;6.90;99.90;;;;;;5058291;28;20407;-58
2023/03/09 12:19:49;;;;;;;31.13;15.85;;;7.00;99.90;;;;;;5041781;28;20113;-58
2023/03/09 12:22:33;;;;;;;27.63;15.77;;;6.90;99.90;;;;;;5059025;28;20028;-58
2023/03/09 12:25:05;;;;;;;25.75;15.10;;;6.90;99.90;;;;;;5058312;28;20338;-58
2023/03/09 12:27:33;;;;;;;;;;;6.80;99.90;;;;;;5058622;28;20083;-57
2023/03/09 12:30:23;;;;;;;34.60;20.50;;;6.70;99.90;;;;;;5058280;28;19920;-57
2023/03/09 12:32:49;;;;;;;26.85;16.00;;;6.90;99.90;;;;;;5058901;28;20033;-58
2023/03/09 12:35:21;;;;;;;27.85;15.55;;;7.10;99.90;;;;;;5057014;28;20116;-57
2023/03/09 12:37:53;;;;;;;25.40;15.02;;;7.40;99.90;;;;;;5058650;28;20029;-58
2023/03/09 12:40:40;;;;;;;25.42;14.52;;;7.60;99.90;;;;;;5058657;28;20025;-58
2023/03/09 12:43:14;;;;;;;22.45;13.48;;;7.70;99.90;;;;;;5058586;28;20037;-58
2023/03/09 12:45:47;;;;;;;20.55;13.65;;;7.50;99.90;;;;;;5058583;28;20067;-58
2023/03/09 12:48:24;;;;;;;21.98;13.10;;;7.50;99.90;;;;;;5058664;28;20037;-59
2023/03/09 12:51:08;;;;;;;21.73;12.70;;;7.70;99.90;;;;;;5058692;28;20175;-58
2023/03/09 12:53:58;;;;;;;20.83;12.35;;;7.30;99.90;;;;;;5058449;28;20029;-58